www.cux-wetter.de
Wetterdaten: Samstag, 06.06.2015
Datum Zeit Temp. A. Feuchte A. Luftdruck Regen Wind Richtung Richtung Sonnenschein Solar Taupunkt Windchill Windben
06.06.2015 00:00 11,6 C 95 % 1014,5 hPa 0,0 l/m 5,6 km/h (2 Bft) O-SO 115 0 min 0 W/m 10,8 C 11,6 C 5,6 km/h (2 Bft)
06.06.2015 00:15 11,6 C 95 % 1013,5 hPa 0,0 l/m 0,6 km/h (0 Bft) O 95 0 min 0 W/m 10,8 C 11,6 C 0,6 km/h (0 Bft)
06.06.2015 00:29 11,6 C 95 % 1013,5 hPa 0,0 l/m 26,6 km/h (4 Bft) N 360 0 min 0 W/m 10,8 C 3,6 C 26,6 km/h (4 Bft)
06.06.2015 00:45 11,6 C 95 % 1014,5 hPa 0,0 l/m 20,5 km/h (4 Bft) N-NW 330 0 min 0 W/m 10,8 C 5,2 C 20,5 km/h (4 Bft)
06.06.2015 01:00 11,6 C 95 % 1014,5 hPa 0,0 l/m 11,2 km/h (2 Bft) NW 305 0 min 0 W/m 10,8 C 8,7 C 11,2 km/h (2 Bft)
06.06.2015 01:14 11,6 C 95 % 1014,5 hPa 0,0 l/m 14,5 km/h (3 Bft) NW 320 0 min 0 W/m 10,8 C 7,3 C 14,5 km/h (3 Bft)
06.06.2015 01:30 11,6 C 95 % 1013,5 hPa 0,0 l/m 12,0 km/h (2 Bft) NW 310 0 min 0 W/m 10,8 C 8,4 C 12,0 km/h (2 Bft)
06.06.2015 01:45 11,6 C 95 % 1014,5 hPa 0,0 l/m 25,4 km/h (4 Bft) NW 315 0 min 0 W/m 10,8 C 3,9 C 25,4 km/h (4 Bft)
06.06.2015 01:59 11,6 C 95 % 1013,5 hPa 0,0 l/m 40,3 km/h (6 Bft) NW 325 0 min 0 W/m 10,8 C 1,2 C 40,3 km/h (6 Bft)
06.06.2015 02:14 11,6 C 95 % 1013,5 hPa 0,3 l/m 30,2 km/h (5 Bft) NW 325 0 min 0 W/m 10,8 C 2,9 C 30,2 km/h (5 Bft)
06.06.2015 02:30 11,6 C 95 % 1013,5 hPa 0,3 l/m 12,4 km/h (2 Bft) W 265 0 min 0 W/m 10,8 C 8,2 C 12,4 km/h (2 Bft)
06.06.2015 02:45 11,6 C 95 % 1013,5 hPa 0,3 l/m 16,6 km/h (3 Bft) W-NW 300 0 min 0 W/m 10,8 C 6,5 C 16,6 km/h (3 Bft)
06.06.2015 02:59 11,6 C 95 % 1013,5 hPa 0,0 l/m 19,2 km/h (3 Bft) W-NW 285 0 min 0 W/m 10,8 C 5,6 C 19,2 km/h (3 Bft)
06.06.2015 03:15 11,6 C 95 % 1013,5 hPa 0,0 l/m 11,7 km/h (2 Bft) W 270 0 min 0 W/m 10,8 C 8,5 C 11,7 km/h (2 Bft)
06.06.2015 03:30 11,6 C 95 % 1013,5 hPa 0,0 l/m 15,5 km/h (3 Bft) W 265 0 min 0 W/m 10,8 C 6,9 C 15,5 km/h (3 Bft)
06.06.2015 03:44 11,6 C 95 % 1013,5 hPa 0,0 l/m 20,1 km/h (4 Bft) W-NW 300 0 min 0 W/m 10,8 C 5,3 C 20,1 km/h (4 Bft)
06.06.2015 04:00 11,6 C 95 % 1012,5 hPa 0,0 l/m 24,9 km/h (4 Bft) NW 305 0 min 0 W/m 10,8 C 4,0 C 24,9 km/h (4 Bft)
06.06.2015 04:15 11,6 C 95 % 1012,5 hPa 0,0 l/m 20,1 km/h (4 Bft) W-NW 295 0 min 0 W/m 10,8 C 5,3 C 20,1 km/h (4 Bft)
06.06.2015 04:30 11,6 C 95 % 1012,5 hPa 0,0 l/m 15,3 km/h (3 Bft) W-NW 285 0 min 0 W/m 10,8 C 7,0 C 15,3 km/h (3 Bft)
06.06.2015 04:44 11,6 C 95 % 1012,5 hPa 0,0 l/m 17,0 km/h (3 Bft) NW 310 0 min 0 W/m 10,8 C 6,3 C 17,0 km/h (3 Bft)
06.06.2015 05:00 11,6 C 95 % 1013,5 hPa 0,0 l/m 21,1 km/h (4 Bft) NW 310 0 min 0 W/m 10,8 C 5,0 C 21,1 km/h (4 Bft)
06.06.2015 05:15 11,6 C 95 % 1012,5 hPa 0,0 l/m 24,8 km/h (4 Bft) NW 315 0 min 0 W/m 10,8 C 4,0 C 24,8 km/h (4 Bft)
06.06.2015 05:29 11,6 C 95 % 1013,5 hPa 0,0 l/m 26,7 km/h (4 Bft) NW 320 0 min 0 W/m 10,8 C 3,6 C 26,7 km/h (4 Bft)
06.06.2015 05:45 11,6 C 95 % 1013,5 hPa 0,0 l/m 25,5 km/h (4 Bft) NW 325 0 min 0 W/m 10,8 C 3,9 C 25,5 km/h (4 Bft)
06.06.2015 06:00 11,6 C 95 % 1013,5 hPa 0,0 l/m 26,5 km/h (4 Bft) NW 320 0 min 0 W/m 10,8 C 3,6 C 26,5 km/h (4 Bft)
06.06.2015 06:15 11,6 C 95 % 1013,5 hPa 0,0 l/m 23,9 km/h (4 Bft) NW 315 0 min 0 W/m 10,8 C 4,3 C 23,9 km/h (4 Bft)
06.06.2015 06:29 11,6 C 95 % 1014,5 hPa 0,0 l/m 31,0 km/h (5 Bft) NW 315 0 min 0 W/m 10,8 C 2,7 C 31,0 km/h (5 Bft)
06.06.2015 06:45 11,6 C 95 % 1014,5 hPa 0,0 l/m 30,6 km/h (5 Bft) NW 325 0 min 0 W/m 10,8 C 2,8 C 30,6 km/h (5 Bft)
06.06.2015 07:00 11,6 C 95 % 1014,5 hPa 0,0 l/m 37,5 km/h (5 Bft) NW 310 0 min 0 W/m 10,8 C 1,6 C 37,5 km/h (5 Bft)
06.06.2015 07:14 11,6 C 95 % 1014,5 hPa 0,0 l/m 25,4 km/h (4 Bft) NW 315 0 min 0 W/m 10,8 C 3,9 C 25,4 km/h (4 Bft)
06.06.2015 07:30 11,6 C 95 % 1015,5 hPa 0,0 l/m 29,0 km/h (5 Bft) NW 315 0 min 0 W/m 10,8 C 3,1 C 29,0 km/h (5 Bft)
06.06.2015 07:44 11,6 C 95 % 1015,5 hPa 0,0 l/m 27,0 km/h (5 Bft) NW 315 0 min 0 W/m 10,8 C 3,5 C 27,0 km/h (5 Bft)
06.06.2015 08:00 11,6 C 95 % 1015,5 hPa 0,0 l/m 24,1 km/h (4 Bft) NW 315 0 min 0 W/m 10,8 C 4,2 C 24,1 km/h (4 Bft)
06.06.2015 08:15 11,6 C 95 % 1015,5 hPa 0,0 l/m 30,3 km/h (5 Bft) NW 315 0 min 0 W/m 10,8 C 2,8 C 30,3 km/h (5 Bft)
06.06.2015 08:30 11,6 C 95 % 1015,5 hPa 0,0 l/m 30,1 km/h (5 Bft) NW 320 0 min 0 W/m 10,8 C 2,9 C 30,1 km/h (5 Bft)
06.06.2015 08:44 11,6 C 95 % 1015,5 hPa 0,0 l/m 24,1 km/h (4 Bft) NW 315 0 min 0 W/m 10,8 C 4,2 C 24,1 km/h (4 Bft)
06.06.2015 09:00 11,6 C 95 % 1016,5 hPa 0,0 l/m 24,4 km/h (4 Bft) N-NW 335 0 min 0 W/m 10,8 C 4,1 C 24,4 km/h (4 Bft)
06.06.2015 09:15 11,6 C 95 % 1016,5 hPa 0,0 l/m 31,9 km/h (5 Bft) N-NW 330 0 min 0 W/m 10,8 C 2,5 C 31,9 km/h (5 Bft)
06.06.2015 09:29 11,6 C 95 % 1016,5 hPa 0,0 l/m 28,8 km/h (5 Bft) N-NW 330 0 min 0 W/m 10,8 C 3,1 C 28,8 km/h (5 Bft)
06.06.2015 09:38 11,6 C 95 % 1017,5 hPa 0,0 l/m 40,5 km/h (6 Bft) N-NW 340 0 min 0 W/m 10,8 C 1,2 C 40,5 km/h (6 Bft)
06.06.2015 09:53 11,6 C 95 % 1017,5 hPa 0,0 l/m 33,7 km/h (5 Bft) N-NW 330 0 min 0 W/m 10,8 C 2,2 C 33,7 km/h (5 Bft)
06.06.2015 10:08 11,6 C 95 % 1017,5 hPa 0,0 l/m 30,2 km/h (5 Bft) N-NW 345 0 min 0 W/m 10,8 C 2,9 C 30,2 km/h (5 Bft)
06.06.2015 10:23 11,6 C 95 % 1017,5 hPa 0,0 l/m 25,5 km/h (4 Bft) N-NW 340 0 min 0 W/m 10,8 C 3,9 C 25,5 km/h (4 Bft)
06.06.2015 10:38 11,6 C 95 % 1018,5 hPa 0,0 l/m 28,0 km/h (5 Bft) NW 325 0 min 0 W/m 10,8 C 3,3 C 28,0 km/h (5 Bft)
06.06.2015 11:00 11,6 C 95 % 1018,5 hPa 0,0 l/m 29,8 km/h (5 Bft) N-NW 330 0 min 0 W/m 10,8 C 2,9 C 29,8 km/h (5 Bft)
06.06.2015 11:15 11,6 C 95 % 1018,5 hPa 0,0 l/m 22,6 km/h (4 Bft) NW 325 0 min 0 W/m 10,8 C 4,6 C 22,6 km/h (4 Bft)
06.06.2015 11:29 11,6 C 95 % 1018,5 hPa 0,0 l/m 22,2 km/h (4 Bft) N-NW 330 0 min 0 W/m 10,8 C 4,7 C 22,2 km/h (4 Bft)
06.06.2015 11:45 11,6 C 95 % 1019,5 hPa 0,0 l/m 27,7 km/h (5 Bft) N-NW 340 0 min 0 W/m 10,8 C 3,4 C 27,7 km/h (5 Bft)
06.06.2015 11:59 11,6 C 95 % 1019,5 hPa 0,0 l/m 33,0 km/h (5 Bft) N-NW 340 0 min 0 W/m 10,8 C 2,3 C 33,0 km/h (5 Bft)
06.06.2015 12:15 11,6 C 95 % 1020,5 hPa 0,0 l/m 30,8 km/h (5 Bft) N-NW 340 0 min 0 W/m 10,8 C 2,8 C 30,8 km/h (5 Bft)
06.06.2015 12:30 11,6 C 95 % 1020,5 hPa 0,0 l/m 34,0 km/h (5 Bft) N-NW 335 0 min 0 W/m 10,8 C 2,2 C 34,0 km/h (5 Bft)
06.06.2015 12:44 11,6 C 95 % 1020,5 hPa 0,0 l/m 29,5 km/h (5 Bft) N-NW 340 0 min 0 W/m 10,8 C 3,0 C 29,5 km/h (5 Bft)
06.06.2015 13:00 11,6 C 95 % 1020,5 hPa 0,0 l/m 33,6 km/h (5 Bft) N-NW 330 0 min 0 W/m 10,8 C 2,2 C 33,6 km/h (5 Bft)
06.06.2015 13:14 11,6 C 95 % 1020,5 hPa 0,0 l/m 29,2 km/h (5 Bft) N-NW 335 0 min 0 W/m 10,8 C 3,1 C 29,2 km/h (5 Bft)
06.06.2015 13:30 11,6 C 95 % 1021,5 hPa 0,0 l/m 33,8 km/h (5 Bft) N-NW 340 0 min 0 W/m 10,8 C 2,2 C 33,8 km/h (5 Bft)
06.06.2015 13:45 11,6 C 95 % 1021,5 hPa 0,0 l/m 32,7 km/h (5 Bft) N-NW 340 0 min 0 W/m 10,8 C 2,4 C 32,7 km/h (5 Bft)
06.06.2015 13:59 11,6 C 95 % 1021,5 hPa 0,0 l/m 26,8 km/h (4 Bft) N-NW 335 0 min 0 W/m 10,8 C 3,6 C 26,8 km/h (4 Bft)
06.06.2015 14:15 11,6 C 95 % 1021,5 hPa 0,0 l/m 33,7 km/h (5 Bft) N-NW 345 0 min 0 W/m 10,8 C 2,2 C 33,7 km/h (5 Bft)
06.06.2015 14:30 11,6 C 95 % 1021,5 hPa 0,0 l/m 28,9 km/h (5 Bft) N-NW 345 0 min 0 W/m 10,8 C 3,1 C 28,9 km/h (5 Bft)
06.06.2015 14:44 11,6 C 95 % 1022,5 hPa 0,0 l/m 30,9 km/h (5 Bft) N-NW 330 0 min 0 W/m 10,8 C 2,7 C 30,9 km/h (5 Bft)
06.06.2015 15:00 11,6 C 95 % 1022,5 hPa 0,0 l/m 28,1 km/h (5 Bft) N 350 0 min 0 W/m 10,8 C 3,3 C 28,1 km/h (5 Bft)
06.06.2015 15:15 11,6 C 95 % 1022,5 hPa 0,0 l/m 28,0 km/h (5 Bft) N-NW 330 0 min 0 W/m 10,8 C 3,3 C 28,0 km/h (5 Bft)
06.06.2015 15:30 11,6 C 95 % 1022,5 hPa 0,0 l/m 30,5 km/h (5 Bft) NW 320 0 min 0 W/m 10,8 C 2,8 C 30,5 km/h (5 Bft)
06.06.2015 15:44 11,6 C 95 % 1022,5 hPa 0,0 l/m 29,7 km/h (5 Bft) N-NW 335 0 min 0 W/m 10,8 C 3,0 C 29,7 km/h (5 Bft)
06.06.2015 16:00 11,6 C 95 % 1022,5 hPa 0,0 l/m 26,6 km/h (4 Bft) NW 325 0 min 0 W/m 10,8 C 3,6 C 26,6 km/h (4 Bft)
06.06.2015 16:15 11,6 C 95 % 1022,5 hPa 0,0 l/m 27,3 km/h (5 Bft) N-NW 335 0 min 0 W/m 10,8 C 3,5 C 27,3 km/h (5 Bft)
06.06.2015 16:29 11,6 C 95 % 1022,5 hPa 0,0 l/m 34,4 km/h (5 Bft) N-NW 335 0 min 0 W/m 10,8 C 2,1 C 34,4 km/h (5 Bft)
06.06.2015 16:45 11,6 C 95 % 1023,5 hPa 0,0 l/m 29,3 km/h (5 Bft) N-NW 345 0 min 0 W/m 10,8 C 3,0 C 29,3 km/h (5 Bft)
06.06.2015 17:00 11,6 C 95 % 1023,5 hPa 0,0 l/m 33,2 km/h (5 Bft) N-NW 340 0 min 0 W/m 10,8 C 2,3 C 33,2 km/h (5 Bft)
06.06.2015 17:14 11,6 C 95 % 1023,5 hPa 0,0 l/m 33,0 km/h (5 Bft) N 350 0 min 0 W/m 10,8 C 2,3 C 33,0 km/h (5 Bft)
06.06.2015 17:30 11,6 C 95 % 1023,5 hPa 0,0 l/m 30,9 km/h (5 Bft) N-NW 345 0 min 0 W/m 10,8 C 2,7 C 30,9 km/h (5 Bft)
06.06.2015 17:45 11,6 C 95 % 1023,5 hPa 0,0 l/m 28,8 km/h (5 Bft) N-NW 345 0 min 0 W/m 10,8 C 3,1 C 28,8 km/h (5 Bft)
06.06.2015 17:59 11,6 C 95 % 1023,5 hPa 0,0 l/m 31,9 km/h (5 Bft) N-NW 340 0 min 0 W/m 10,8 C 2,5 C 31,9 km/h (5 Bft)
06.06.2015 18:14 11,6 C 95 % 1023,5 hPa 0,0 l/m 30,3 km/h (5 Bft) N-NW 340 0 min 0 W/m 10,8 C 2,8 C 30,3 km/h (5 Bft)
06.06.2015 18:30 11,6 C 95 % 1023,5 hPa 0,0 l/m 30,0 km/h (5 Bft) N-NW 340 0 min 0 W/m 10,8 C 2,9 C 30,0 km/h (5 Bft)
06.06.2015 18:44 11,6 C 95 % 1023,5 hPa 0,0 l/m 34,1 km/h (5 Bft) N-NW 335 0 min 0 W/m 10,8 C 2,2 C 34,1 km/h (5 Bft)
06.06.2015 18:59 11,6 C 95 % 1023,5 hPa 0,0 l/m 28,5 km/h (5 Bft) N-NW 330 0 min 0 W/m 10,8 C 3,2 C 28,5 km/h (5 Bft)
06.06.2015 19:15 11,6 C 95 % 1023,5 hPa 0,0 l/m 29,5 km/h (5 Bft) N-NW 335 0 min 0 W/m 10,8 C 3,0 C 29,5 km/h (5 Bft)
06.06.2015 19:30 11,6 C 95 % 1023,5 hPa 0,0 l/m 30,9 km/h (5 Bft) N-NW 345 0 min 0 W/m 10,8 C 2,7 C 30,9 km/h (5 Bft)
06.06.2015 19:44 11,6 C 95 % 1023,5 hPa 0,0 l/m 32,9 km/h (5 Bft) N-NW 340 0 min 0 W/m 10,8 C 2,4 C 32,9 km/h (5 Bft)
06.06.2015 20:00 11,6 C 95 % 1023,5 hPa 0,0 l/m 25,1 km/h (4 Bft) N-NW 345 0 min 0 W/m 10,8 C 4,0 C 25,1 km/h (4 Bft)
06.06.2015 20:15 11,6 C 95 % 1023,5 hPa 0,0 l/m 26,2 km/h (4 Bft) N-NW 335 0 min 0 W/m 10,8 C 3,7 C 26,2 km/h (4 Bft)
06.06.2015 20:29 11,6 C 95 % 1023,5 hPa 0,0 l/m 23,9 km/h (4 Bft) N-NW 340 0 min 0 W/m 10,8 C 4,3 C 23,9 km/h (4 Bft)
06.06.2015 20:45 11,6 C 95 % 1024,5 hPa 0,0 l/m 22,6 km/h (4 Bft) N-NW 330 0 min 0 W/m 10,8 C 4,6 C 22,6 km/h (4 Bft)
06.06.2015 21:00 11,6 C 95 % 1024,5 hPa 0,0 l/m 19,5 km/h (3 Bft) N-NW 330 0 min 0 W/m 10,8 C 5,5 C 19,5 km/h (3 Bft)
06.06.2015 21:15 11,6 C 95 % 1024,5 hPa 0,0 l/m 18,1 km/h (3 Bft) N-NW 340 0 min 0 W/m 10,8 C 6,0 C 18,1 km/h (3 Bft)
06.06.2015 21:29 11,6 C 95 % 1024,5 hPa 0,0 l/m 12,2 km/h (2 Bft) N-NW 335 0 min 0 W/m 10,8 C 8,3 C 12,2 km/h (2 Bft)
06.06.2015 21:45 11,6 C 95 % 1024,5 hPa 0,0 l/m 9,2 km/h (2 Bft) NW 320 0 min 0 W/m 10,8 C 9,8 C 9,2 km/h (2 Bft)
06.06.2015 22:00 11,6 C 95 % 1024,5 hPa 0,0 l/m 9,6 km/h (2 Bft) N-NW 340 0 min 0 W/m 10,8 C 9,6 C 9,6 km/h (2 Bft)
06.06.2015 22:14 11,6 C 95 % 1024,5 hPa 0,0 l/m 8,3 km/h (2 Bft) NW 315 0 min 0 W/m 10,8 C 10,3 C 8,3 km/h (2 Bft)
06.06.2015 22:30 11,6 C 95 % 1024,5 hPa 0,0 l/m 11,2 km/h (2 Bft) NW 325 0 min 0 W/m 10,8 C 8,7 C 11,2 km/h (2 Bft)
06.06.2015 22:45 11,6 C 95 % 1024,5 hPa 0,0 l/m 11,3 km/h (2 Bft) N-NW 330 0 min 0 W/m 10,8 C 8,7 C 11,3 km/h (2 Bft)
06.06.2015 22:59 11,6 C 95 % 1024,5 hPa 0,0 l/m 13,1 km/h (3 Bft) NW 315 0 min 0 W/m 10,8 C 7,9 C 13,1 km/h (3 Bft)
06.06.2015 23:15 11,6 C 95 % 1024,5 hPa 0,0 l/m 12,3 km/h (2 Bft) NW 325 0 min 0 W/m 10,8 C 8,2 C 12,3 km/h (2 Bft)
06.06.2015 23:30 11,6 C 95 % 1024,5 hPa 0,0 l/m 10,8 km/h (2 Bft) NW 310 0 min 0 W/m 10,8 C 8,9 C 10,8 km/h (2 Bft)
06.06.2015 23:44 11,6 C 95 % 1025,5 hPa 0,0 l/m 8,1 km/h (2 Bft) W-SW 240 0 min 0 W/m 10,8 C 10,5 C 8,1 km/h (2 Bft)
_ Min-Zeit 00:00 00:00 04:00 - 00:15 - - - - 00:00 09:38 00:15
Minimum _ 11,6 C 95 % 1012,5 hPa - 0,6 km/h (0 Bft) - - - - 10,8 C 1,2 C 0,6 km/h (0 Bft)
_ Max-Zeit 00:00 00:00 23:44 02:14 09:38 - - 00:00 00:00 00:00 00:00 09:38
Maximum _ 11,6 C 95 % 1025,5 hPa 0,3 l/m 40,5 km/h
N-NW (6 Bft)
- - 0 min 0 W/m 10,8 C 11,6 C 40,5 km/h
N-NW (6 Bft)
Durchschnitt _ 11,6 C 95 % 1019,0 hPa #0,9 l/m 24,8 km/h (4 Bft) N-NW - #0 min. 0 W/m 10,8 C 4,4 C 24,8 km/h (4 Bft)
copyright by Holger Just